sensor_id;sensor_type;location;lat;lon;timestamp;pressure;altitude;pressure_sealevel;temperature;humidity
4972;BME280;2501;51.214;6.768;2024-01-16T00:01:15;100641.88;;;1.00;100.00
4972;BME280;2501;51.214;6.768;2024-01-16T00:03:44;100641.28;;;0.86;100.00
4972;BME280;2501;51.214;6.768;2024-01-16T00:06:12;100636.94;;;0.85;100.00
4972;BME280;2501;51.214;6.768;2024-01-16T00:08:43;100625.91;;;0.89;100.00
4972;BME280;2501;51.214;6.768;2024-01-16T00:11:12;100640.44;;;0.87;100.00
4972;BME280;2501;51.214;6.768;2024-01-16T00:13:40;100636.38;;;0.92;100.00
4972;BME280;2501;51.214;6.768;2024-01-16T00:16:08;100648.25;;;0.89;100.00
4972;BME280;2501;51.214;6.768;2024-01-16T00:18:37;100645.88;;;0.93;100.00
4972;BME280;2501;51.214;6.768;2024-01-16T00:21:05;100645.41;;;1.02;100.00
4972;BME280;2501;51.214;6.768;2024-01-16T00:23:34;100646.53;;;1.09;100.00
4972;BME280;2501;51.214;6.768;2024-01-16T00:26:05;100651.56;;;1.05;100.00
4972;BME280;2501;51.214;6.768;2024-01-16T00:28:33;100635.75;;;0.98;100.00
4972;BME280;2501;51.214;6.768;2024-01-16T00:31:07;100646.91;;;0.97;100.00
4972;BME280;2501;51.214;6.768;2024-01-16T00:33:35;100649.75;;;1.03;100.00
4972;BME280;2501;51.214;6.768;2024-01-16T00:36:05;100655.03;;;1.06;100.00
4972;BME280;2501;51.214;6.768;2024-01-16T00:38:33;100646.38;;;0.85;100.00
4972;BME280;2501;51.214;6.768;2024-01-16T00:41:04;100652.34;;;1.03;100.00
4972;BME280;2501;51.214;6.768;2024-01-16T00:43:33;100657.13;;;1.15;100.00
4972;BME280;2501;51.214;6.768;2024-01-16T00:46:02;100652.84;;;1.15;100.00
4972;BME280;2501;51.214;6.768;2024-01-16T00:48:30;100661.28;;;1.11;100.00
4972;BME280;2501;51.214;6.768;2024-01-16T00:50:59;100662.09;;;1.10;100.00
4972;BME280;2501;51.214;6.768;2024-01-16T00:53:27;100663.84;;;1.11;100.00
4972;BME280;2501;51.214;6.768;2024-01-16T00:55:55;100655.25;;;0.91;100.00
4972;BME280;2501;51.214;6.768;2024-01-16T00:58:26;100662.28;;;1.15;100.00
4972;BME280;2501;51.214;6.768;2024-01-16T01:00:55;100663.91;;;0.73;100.00
4972;BME280;2501;51.214;6.768;2024-01-16T01:03:23;100671.34;;;1.05;100.00
4972;BME280;2501;51.214;6.768;2024-01-16T01:05:52;100670.88;;;1.34;100.00
4972;BME280;2501;51.214;6.768;2024-01-16T01:08:20;100674.97;;;1.29;100.00
4972;BME280;2501;51.214;6.768;2024-01-16T01:10:49;100677.28;;;1.02;100.00
4972;BME280;2501;51.214;6.768;2024-01-16T01:13:17;100680.34;;;0.94;100.00
4972;BME280;2501;51.214;6.768;2024-01-16T01:15:48;100685.34;;;1.10;100.00
4972;BME280;2501;51.214;6.768;2024-01-16T01:18:17;100684.06;;;1.00;100.00
4972;BME280;2501;51.214;6.768;2024-01-16T01:20:45;100678.38;;;0.88;100.00
4972;BME280;2501;51.214;6.768;2024-01-16T01:23:17;100677.88;;;0.97;100.00
4972;BME280;2501;51.214;6.768;2024-01-16T01:25:45;100682.31;;;0.99;100.00
4972;BME280;2501;51.214;6.768;2024-01-16T01:28:14;100681.28;;;0.96;100.00
4972;BME280;2501;51.214;6.768;2024-01-16T01:30:42;100686.03;;;0.87;100.00
4972;BME280;2501;51.214;6.768;2024-01-16T01:33:13;100682.19;;;0.77;100.00
4972;BME280;2501;51.214;6.768;2024-01-16T01:35:42;100685.72;;;0.79;100.00
4972;BME280;2501;51.214;6.768;2024-01-16T01:38:11;100684.97;;;0.82;100.00
4972;BME280;2501;51.214;6.768;2024-01-16T01:40:39;100689.56;;;0.89;100.00
4972;BME280;2501;51.214;6.768;2024-01-16T01:43:19;100688.91;;;0.93;100.00
4972;BME280;2501;51.214;6.768;2024-01-16T01:45:59;100697.72;;;0.98;100.00
4972;BME280;2501;51.214;6.768;2024-01-16T01:48:40;100692.06;;;0.86;100.00
4972;BME280;2501;51.214;6.768;2024-01-16T01:51:09;100696.19;;;1.01;100.00
4972;BME280;2501;51.214;6.768;2024-01-16T01:53:39;100701.28;;;1.00;100.00
4972;BME280;2501;51.214;6.768;2024-01-16T01:56:10;100696.91;;;0.99;100.00
4972;BME280;2501;51.214;6.768;2024-01-16T01:58:40;100697.94;;;1.02;100.00
4972;BME280;2501;51.214;6.768;2024-01-16T02:01:11;100691.56;;;0.94;100.00
4972;BME280;2501;51.214;6.768;2024-01-16T02:03:45;100700.72;;;1.28;100.00
4972;BME280;2501;51.214;6.768;2024-01-16T02:06:14;100710.78;;;1.22;100.00
4972;BME280;2501;51.214;6.768;2024-01-16T02:08:44;100692.91;;;1.26;100.00
4972;BME280;2501;51.214;6.768;2024-01-16T02:11:13;100694.75;;;1.29;100.00
4972;BME280;2501;51.214;6.768;2024-01-16T02:13:41;100696.69;;;1.14;100.00
4972;BME280;2501;51.214;6.768;2024-01-16T02:16:19;100708.03;;;1.17;100.00
4972;BME280;2501;51.214;6.768;2024-01-16T02:18:51;100706.09;;;0.92;100.00
4972;BME280;2501;51.214;6.768;2024-01-16T02:21:21;100699.72;;;1.03;100.00
4972;BME280;2501;51.214;6.768;2024-01-16T02:23:53;100708.75;;;0.94;100.00
4972;BME280;2501;51.214;6.768;2024-01-16T02:26:22;100714.22;;;1.21;100.00
4972;BME280;2501;51.214;6.768;2024-01-16T02:28:50;100701.72;;;1.11;100.00
4972;BME280;2501;51.214;6.768;2024-01-16T02:31:19;100704.66;;;0.99;100.00
4972;BME280;2501;51.214;6.768;2024-01-16T02:33:47;100707.38;;;1.02;100.00
4972;BME280;2501;51.214;6.768;2024-01-16T02:36:15;100707.13;;;0.96;100.00
4972;BME280;2501;51.214;6.768;2024-01-16T02:38:44;100706.06;;;1.12;100.00
4972;BME280;2501;51.214;6.768;2024-01-16T02:41:16;100706.41;;;1.19;100.00
4972;BME280;2501;51.214;6.768;2024-01-16T02:43:45;100704.22;;;1.09;100.00
4972;BME280;2501;51.214;6.768;2024-01-16T02:46:13;100703.34;;;1.09;100.00
4972;BME280;2501;51.214;6.768;2024-01-16T02:48:42;100702.00;;;1.17;100.00
4972;BME280;2501;51.214;6.768;2024-01-16T02:51:11;100696.44;;;0.88;100.00
4972;BME280;2501;51.214;6.768;2024-01-16T02:53:41;100698.19;;;1.09;100.00
4972;BME280;2501;51.214;6.768;2024-01-16T02:56:09;100696.25;;;1.24;100.00
4972;BME280;2501;51.214;6.768;2024-01-16T02:58:40;100698.97;;;1.27;100.00
4972;BME280;2501;51.214;6.768;2024-01-16T03:01:09;100695.44;;;1.25;100.00
4972;BME280;2501;51.214;6.768;2024-01-16T03:03:38;100695.16;;;0.98;100.00
4972;BME280;2501;51.214;6.768;2024-01-16T03:06:06;100689.31;;;0.83;100.00
4972;BME280;2501;51.214;6.768;2024-01-16T03:08:35;100689.31;;;1.23;100.00
4972;BME280;2501;51.214;6.768;2024-01-16T03:11:03;100689.91;;;1.16;100.00
4972;BME280;2501;51.214;6.768;2024-01-16T03:13:32;100684.63;;;0.93;100.00
4972;BME280;2501;51.214;6.768;2024-01-16T03:16:06;100690.88;;;0.98;100.00
4972;BME280;2501;51.214;6.768;2024-01-16T03:18:34;100688.91;;;0.74;100.00
4972;BME280;2501;51.214;6.768;2024-01-16T03:21:03;100683.25;;;1.01;100.00
4972;BME280;2501;51.214;6.768;2024-01-16T03:23:31;100682.63;;;0.88;100.00
4972;BME280;2501;51.214;6.768;2024-01-16T03:26:00;100688.94;;;1.14;100.00
4972;BME280;2501;51.214;6.768;2024-01-16T03:28:29;100692.28;;;1.11;100.00
4972;BME280;2501;51.214;6.768;2024-01-16T03:30:57;100693.75;;;1.06;100.00
4972;BME280;2501;51.214;6.768;2024-01-16T03:33:28;100685.34;;;1.10;100.00
4972;BME280;2501;51.214;6.768;2024-01-16T03:35:56;100693.28;;;1.15;100.00
4972;BME280;2501;51.214;6.768;2024-01-16T03:38:25;100691.78;;;1.20;100.00
4972;BME280;2501;51.214;6.768;2024-01-16T03:40:53;100695.56;;;1.28;100.00
4972;BME280;2501;51.214;6.768;2024-01-16T03:43:22;100693.16;;;1.12;100.00
4972;BME280;2501;51.214;6.768;2024-01-16T03:45:50;100683.72;;;0.93;100.00
4972;BME280;2501;51.214;6.768;2024-01-16T03:48:18;100691.59;;;1.15;100.00
4972;BME280;2501;51.214;6.768;2024-01-16T03:50:49;100697.88;;;1.22;100.00
4972;BME280;2501;51.214;6.768;2024-01-16T03:53:19;100686.66;;;1.00;100.00
4972;BME280;2501;51.214;6.768;2024-01-16T03:55:48;100695.34;;;1.02;100.00
4972;BME280;2501;51.214;6.768;2024-01-16T03:58:17;100694.34;;;0.80;100.00
4972;BME280;2501;51.214;6.768;2024-01-16T04:00:46;100695.38;;;0.64;100.00
4972;BME280;2501;51.214;6.768;2024-01-16T04:03:16;100684.69;;;0.95;100.00
4972;BME280;2501;51.214;6.768;2024-01-16T04:05:44;100693.69;;;1.04;100.00
4972;BME280;2501;51.214;6.768;2024-01-16T04:08:16;100687.22;;;0.74;100.00
4972;BME280;2501;51.214;6.768;2024-01-16T04:10:44;100691.47;;;0.93;100.00
4972;BME280;2501;51.214;6.768;2024-01-16T04:13:13;100689.78;;;0.74;100.00
4972;BME280;2501;51.214;6.768;2024-01-16T04:15:41;100701.22;;;0.79;100.00
4972;BME280;2501;51.214;6.768;2024-01-16T04:18:10;100699.72;;;0.84;100.00
4972;BME280;2501;51.214;6.768;2024-01-16T04:20:38;100700.19;;;0.95;100.00
4972;BME280;2501;51.214;6.768;2024-01-16T04:23:07;100698.41;;;0.94;100.00
4972;BME280;2501;51.214;6.768;2024-01-16T04:25:39;100698.41;;;0.75;100.00
4972;BME280;2501;51.214;6.768;2024-01-16T04:28:08;100696.44;;;0.88;100.00
4972;BME280;2501;51.214;6.768;2024-01-16T04:30:36;100697.00;;;0.81;100.00
4972;BME280;2501;51.214;6.768;2024-01-16T04:33:04;100695.50;;;0.86;100.00
4972;BME280;2501;51.214;6.768;2024-01-16T04:35:33;100702.03;;;0.59;100.00
4972;BME280;2501;51.214;6.768;2024-01-16T04:38:02;100693.94;;;0.70;100.00
4972;BME280;2501;51.214;6.768;2024-01-16T04:40:31;100689.31;;;1.02;100.00
4972;BME280;2501;51.214;6.768;2024-01-16T04:43:02;100690.94;;;1.00;100.00
4972;BME280;2501;51.214;6.768;2024-01-16T04:45:31;100686.66;;;1.00;100.00
4972;BME280;2501;51.214;6.768;2024-01-16T04:47:59;100697.31;;;0.69;100.00
4972;BME280;2501;51.214;6.768;2024-01-16T04:50:28;100699.34;;;1.15;100.00
4972;BME280;2501;51.214;6.768;2024-01-16T04:52:57;100695.63;;;0.89;100.00
4972;BME280;2501;51.214;6.768;2024-01-16T04:55:26;100696.88;;;0.78;100.00
4972;BME280;2501;51.214;6.768;2024-01-16T04:57:55;100701.00;;;0.94;100.00
4972;BME280;2501;51.214;6.768;2024-01-16T05:00:27;100689.47;;;0.66;100.00
4972;BME280;2501;51.214;6.768;2024-01-16T05:02:56;100691.34;;;0.90;100.00
4972;BME280;2501;51.214;6.768;2024-01-16T05:05:24;100691.16;;;0.85;100.00
4972;BME280;2501;51.214;6.768;2024-01-16T05:07:53;100694.34;;;0.80;100.00
4972;BME280;2501;51.214;6.768;2024-01-16T05:10:21;100690.81;;;0.58;100.00
4972;BME280;2501;51.214;6.768;2024-01-16T05:12:50;100690.06;;;0.80;100.00
4972;BME280;2501;51.214;6.768;2024-01-16T05:15:18;100685.38;;;0.91;100.00
4972;BME280;2501;51.214;6.768;2024-01-16T05:17:49;100686.91;;;1.07;100.00
4972;BME280;2501;51.214;6.768;2024-01-16T05:20:18;100684.97;;;0.82;100.00
4972;BME280;2501;51.214;6.768;2024-01-16T05:22:47;100678.59;;;0.74;100.00
4972;BME280;2501;51.214;6.768;2024-01-16T05:25:16;100685.22;;;0.88;100.00
4972;BME280;2501;51.214;6.768;2024-01-16T05:27:45;100681.16;;;0.93;100.00
4972;BME280;2501;51.214;6.768;2024-01-16T05:30:15;100682.09;;;0.95;100.00
4972;BME280;2501;51.214;6.768;2024-01-16T05:32:43;100690.44;;;1.09;100.00
4972;BME280;2501;51.214;6.768;2024-01-16T05:35:14;100686.00;;;0.66;100.00
4972;BME280;2501;51.214;6.768;2024-01-16T05:37:43;100686.94;;;0.49;100.00
4972;BME280;2501;51.214;6.768;2024-01-16T05:40:11;100676.88;;;0.74;100.00
4972;BME280;2501;51.214;6.768;2024-01-16T05:42:40;100676.66;;;0.89;100.00
4972;BME280;2501;51.214;6.768;2024-01-16T05:45:09;100674.50;;;0.59;100.00
4972;BME280;2501;51.214;6.768;2024-01-16T05:47:39;100674.50;;;0.79;100.00
4972;BME280;2501;51.214;6.768;2024-01-16T05:50:07;100675.66;;;0.27;100.00
4972;BME280;2501;51.214;6.768;2024-01-16T05:52:39;100668.00;;;0.29;100.00
4972;BME280;2501;51.214;6.768;2024-01-16T05:55:08;100659.16;;;0.62;100.00
4972;BME280;2501;51.214;6.768;2024-01-16T05:57:37;100657.19;;;0.76;100.00
4972;BME280;2501;51.214;6.768;2024-01-16T06:00:06;100658.34;;;0.63;100.00
4972;BME280;2501;51.214;6.768;2024-01-16T06:02:35;100656.41;;;0.21;100.00
4972;BME280;2501;51.214;6.768;2024-01-16T06:05:04;100661.72;;;0.24;100.00
4972;BME280;2501;51.214;6.768;2024-01-16T06:07:33;100664.13;;;0.02;100.00
4972;BME280;2501;51.214;6.768;2024-01-16T06:10:05;100667.16;;;0.11;100.00
4972;BME280;2501;51.214;6.768;2024-01-16T06:12:34;100660.50;;;0.35;100.00
4972;BME280;2501;51.214;6.768;2024-01-16T06:15:03;100653.78;;;0.58;100.00
4972;BME280;2501;51.214;6.768;2024-01-16T06:17:31;100662.00;;;0.11;100.00
4972;BME280;2501;51.214;6.768;2024-01-16T06:20:03;100666.13;;;-0.11;100.00
4972;BME280;2501;51.214;6.768;2024-01-16T06:22:32;100666.38;;;-0.06;100.00
4972;BME280;2501;51.214;6.768;2024-01-16T06:25:00;100670.19;;;-0.16;100.00
4972;BME280;2501;51.214;6.768;2024-01-16T06:27:32;100658.50;;;-0.27;100.00
4972;BME280;2501;51.214;6.768;2024-01-16T06:30:00;100668.81;;;-0.27;100.00
4972;BME280;2501;51.214;6.768;2024-01-16T06:32:29;100664.50;;;0.09;100.00
4972;BME280;2501;51.214;6.768;2024-01-16T06:34:57;100670.72;;;-0.23;100.00
4972;BME280;2501;51.214;6.768;2024-01-16T06:37:26;100667.03;;;-0.28;100.00
4972;BME280;2501;51.214;6.768;2024-01-16T06:39:54;100666.47;;;-0.40;100.00
4972;BME280;2501;51.214;6.768;2024-01-16T06:42:23;100668.31;;;-0.38;100.00
4972;BME280;2501;51.214;6.768;2024-01-16T06:44:54;100673.00;;;-0.11;100.00
4972;BME280;2501;51.214;6.768;2024-01-16T06:47:22;100672.13;;;-0.29;100.00
4972;BME280;2501;51.214;6.768;2024-01-16T06:49:51;100674.78;;;-0.28;100.00
4972;BME280;2501;51.214;6.768;2024-01-16T06:52:26;100672.50;;;-0.40;100.00
4972;BME280;2501;51.214;6.768;2024-01-16T06:55:13;100679.41;;;-0.39;100.00
4972;BME280;2501;51.214;6.768;2024-01-16T06:57:41;100674.59;;;-0.13;100.00
4972;BME280;2501;51.214;6.768;2024-01-16T07:00:17;100673.97;;;0.28;100.00
4972;BME280;2501;51.214;6.768;2024-01-16T07:02:48;100674.34;;;0.18;100.00
4972;BME280;2501;51.214;6.768;2024-01-16T07:05:20;100680.94;;;-0.07;100.00
4972;BME280;2501;51.214;6.768;2024-01-16T07:07:48;100678.56;;;0.35;100.00
4972;BME280;2501;51.214;6.768;2024-01-16T07:10:21;100680.72;;;-0.11;100.00
4972;BME280;2501;51.214;6.768;2024-01-16T07:12:58;100680.69;;;0.07;100.00
4972;BME280;2501;51.214;6.768;2024-01-16T07:15:33;100688.66;;;0.48;100.00
4972;BME280;2501;51.214;6.768;2024-01-16T07:18:05;100701.88;;;0.56;100.00
4972;BME280;2501;51.214;6.768;2024-01-16T07:20:42;100705.69;;;0.08;100.00
4972;BME280;2501;51.214;6.768;2024-01-16T07:23:12;100708.25;;;0.08;100.00
4972;BME280;2501;51.214;6.768;2024-01-16T07:25:41;100710.34;;;0.53;100.00
4972;BME280;2501;51.214;6.768;2024-01-16T07:28:11;100706.81;;;0.32;100.00
4972;BME280;2501;51.214;6.768;2024-01-16T07:30:48;100720.72;;;0.16;100.00
4972;BME280;2501;51.214;6.768;2024-01-16T07:33:20;100712.13;;;-0.02;100.00
4972;BME280;2501;51.214;6.768;2024-01-16T07:35:50;100716.88;;;0.08;100.00
4972;BME280;2501;51.214;6.768;2024-01-16T07:38:19;100714.16;;;0.05;100.00
4972;BME280;2501;51.214;6.768;2024-01-16T07:40:50;100719.13;;;0.20;100.00
4972;BME280;2501;51.214;6.768;2024-01-16T07:43:22;100716.47;;;0.18;100.00
4972;BME280;2501;51.214;6.768;2024-01-16T07:46:06;100722.25;;;0.13;100.00
4972;BME280;2501;51.214;6.768;2024-01-16T07:48:34;100714.53;;;0.13;100.00
4972;BME280;2501;51.214;6.768;2024-01-16T07:51:12;100720.31;;;0.26;100.00
4972;BME280;2501;51.214;6.768;2024-01-16T07:53:43;100719.44;;;0.26;100.00
4972;BME280;2501;51.214;6.768;2024-01-16T07:56:12;100725.50;;;0.46;100.00
4972;BME280;2501;51.214;6.768;2024-01-16T07:58:44;100728.72;;;0.79;100.00
4972;BME280;2501;51.214;6.768;2024-01-16T08:01:15;100726.66;;;0.52;100.00
4972;BME280;2501;51.214;6.768;2024-01-16T08:03:44;100726.00;;;0.56;100.00
4972;BME280;2501;51.214;6.768;2024-01-16T08:06:13;100724.38;;;0.58;100.00
4972;BME280;2501;51.214;6.768;2024-01-16T08:08:41;100715.69;;;0.76;100.00
4972;BME280;2501;51.214;6.768;2024-01-16T08:11:10;100712.75;;;0.87;100.00
4972;BME280;2501;51.214;6.768;2024-01-16T08:13:38;100722.38;;;0.53;100.00
4972;BME280;2501;51.214;6.768;2024-01-16T08:16:10;100723.53;;;0.40;100.00
4972;BME280;2501;51.214;6.768;2024-01-16T08:18:42;100727.78;;;0.77;100.00
4972;BME280;2501;51.214;6.768;2024-01-16T08:21:14;100717.81;;;0.28;100.00
4972;BME280;2501;51.214;6.768;2024-01-16T08:23:42;100725.16;;;0.38;100.00
4972;BME280;2501;51.214;6.768;2024-01-16T08:26:11;100723.81;;;0.46;100.00
4972;BME280;2501;51.214;6.768;2024-01-16T08:28:39;100729.75;;;0.26;100.00
4972;BME280;2501;51.214;6.768;2024-01-16T08:31:08;100737.88;;;0.16;100.00
4972;BME280;2501;51.214;6.768;2024-01-16T08:33:36;100740.97;;;0.09;100.00
4972;BME280;2501;51.214;6.768;2024-01-16T08:36:08;100742.44;;;0.21;100.00
4972;BME280;2501;51.214;6.768;2024-01-16T08:38:36;100747.38;;;0.17;100.00
4972;BME280;2501;51.214;6.768;2024-01-16T08:41:04;100748.34;;;0.56;100.00
4972;BME280;2501;51.214;6.768;2024-01-16T08:43:38;100752.81;;;0.23;100.00
4972;BME280;2501;51.214;6.768;2024-01-16T08:46:11;100751.28;;;0.26;100.00
4972;BME280;2501;51.214;6.768;2024-01-16T08:48:43;100744.66;;;0.14;100.00
4972;BME280;2501;51.214;6.768;2024-01-16T08:51:14;100745.72;;;-0.01;100.00
4972;BME280;2501;51.214;6.768;2024-01-16T08:53:45;100751.94;;;0.05;100.00
4972;BME280;2501;51.214;6.768;2024-01-16T08:56:14;100752.47;;;0.15;100.00
4972;BME280;2501;51.214;6.768;2024-01-16T08:58:43;100737.41;;;0.24;100.00
4972;BME280;2501;51.214;6.768;2024-01-16T09:01:11;100739.31;;;0.65;100.00
4972;BME280;2501;51.214;6.768;2024-01-16T09:03:40;100731.25;;;0.40;100.00
4972;BME280;2501;51.214;6.768;2024-01-16T09:06:09;100744.72;;;0.33;100.00
4972;BME280;2501;51.214;6.768;2024-01-16T09:08:40;100729.59;;;0.60;100.00
4972;BME280;2501;51.214;6.768;2024-01-16T09:11:10;100740.53;;;0.74;100.00
4972;BME280;2501;51.214;6.768;2024-01-16T09:13:39;100739.25;;;0.83;100.00
4972;BME280;2501;51.214;6.768;2024-01-16T09:16:10;100744.69;;;0.51;100.00
4972;BME280;2501;51.214;6.768;2024-01-16T09:18:43;100744.28;;;0.80;100.00
4972;BME280;2501;51.214;6.768;2024-01-16T09:21:11;100742.03;;;0.88;100.00
4972;BME280;2501;51.214;6.768;2024-01-16T09:23:44;100749.91;;;0.91;100.00
4972;BME280;2501;51.214;6.768;2024-01-16T09:26:12;100741.06;;;1.05;100.00
4972;BME280;2501;51.214;6.768;2024-01-16T09:28:44;100745.16;;;1.19;100.00
4972;BME280;2501;51.214;6.768;2024-01-16T09:31:14;100740.81;;;0.99;100.00
4972;BME280;2501;51.214;6.768;2024-01-16T09:33:43;100746.19;;;1.03;100.00
4972;BME280;2501;51.214;6.768;2024-01-16T09:36:12;100746.66;;;1.14;100.00
4972;BME280;2501;51.214;6.768;2024-01-16T09:38:46;100734.03;;;1.01;100.00
4972;BME280;2501;51.214;6.768;2024-01-16T09:41:20;100733.41;;;0.49;100.00
4972;BME280;2501;51.214;6.768;2024-01-16T09:43:49;100739.22;;;0.45;100.00
4972;BME280;2501;51.214;6.768;2024-01-16T09:46:26;100734.09;;;1.02;100.00
4972;BME280;2501;51.214;6.768;2024-01-16T09:48:56;100732.97;;;0.40;100.00
4972;BME280;2501;51.214;6.768;2024-01-16T09:51:25;100736.31;;;0.19;100.00
4972;BME280;2501;51.214;6.768;2024-01-16T09:53:56;100743.19;;;0.75;100.00
4972;BME280;2501;51.214;6.768;2024-01-16T09:56:25;100740.38;;;0.32;100.00
4972;BME280;2501;51.214;6.768;2024-01-16T09:59:03;100736.06;;;0.89;100.00
4972;BME280;2501;51.214;6.768;2024-01-16T10:01:33;100736.06;;;0.50;100.00
4972;BME280;2501;51.214;6.768;2024-01-16T10:04:02;100733.22;;;0.63;100.00
4972;BME280;2501;51.214;6.768;2024-01-16T10:06:53;100729.41;;;0.38;100.00
4972;BME280;2501;51.214;6.768;2024-01-16T10:09:33;100726.50;;;0.67;100.00
4972;BME280;2501;51.214;6.768;2024-01-16T10:12:12;100720.03;;;0.77;100.00
4972;BME280;2501;51.214;6.768;2024-01-16T10:14:44;100716.47;;;0.55;100.00
4972;BME280;2501;51.214;6.768;2024-01-16T10:17:13;100711.53;;;0.79;100.00
4972;BME280;2501;51.214;6.768;2024-01-16T10:19:48;100717.03;;;0.48;100.00
4972;BME280;2501;51.214;6.768;2024-01-16T10:22:21;100715.13;;;0.44;100.00
4972;BME280;2501;51.214;6.768;2024-01-16T10:25:04;100714.53;;;0.50;100.00
4972;BME280;2501;51.214;6.768;2024-01-16T10:27:33;100716.75;;;0.42;100.00
4972;BME280;2501;51.214;6.768;2024-01-16T10:30:02;100706.59;;;0.64;100.00
4972;BME280;2501;51.214;6.768;2024-01-16T10:32:33;100699.91;;;0.31;100.00
4972;BME280;2501;51.214;6.768;2024-01-16T10:35:07;100699.75;;;0.28;100.00
4972;BME280;2501;51.214;6.768;2024-01-16T10:37:46;100688.44;;;0.44;100.00
4972;BME280;2501;51.214;6.768;2024-01-16T10:40:19;100686.72;;;0.25;100.00
4972;BME280;2501;51.214;6.768;2024-01-16T10:42:57;100683.56;;;0.50;100.00
4972;BME280;2501;51.214;6.768;2024-01-16T10:45:26;100683.34;;;0.64;100.00
4972;BME280;2501;51.214;6.768;2024-01-16T10:48:01;100692.25;;;0.52;100.00
4972;BME280;2501;51.214;6.768;2024-01-16T10:50:30;100693.63;;;0.26;100.00
4972;BME280;2501;51.214;6.768;2024-01-16T10:53:03;100692.66;;;0.80;100.00
4972;BME280;2501;51.214;6.768;2024-01-16T10:55:43;100695.16;;;0.79;100.00
4972;BME280;2501;51.214;6.768;2024-01-16T10:58:14;100690.94;;;0.42;100.00
4972;BME280;2501;51.214;6.768;2024-01-16T11:00:44;100688.50;;;0.45;100.00
4972;BME280;2501;51.214;6.768;2024-01-16T11:03:20;100681.78;;;0.49;100.00
4972;BME280;2501;51.214;6.768;2024-01-16T11:05:52;100684.00;;;0.41;100.00
4972;BME280;2501;51.214;6.768;2024-01-16T11:08:22;100683.13;;;0.41;100.00
4972;BME280;2501;51.214;6.768;2024-01-16T11:10:59;100679.28;;;0.50;100.00
4972;BME280;2501;51.214;6.768;2024-01-16T11:13:37;100673.00;;;1.03;100.00
4972;BME280;2501;51.214;6.768;2024-01-16T11:16:08;100673.91;;;0.84;100.00
4972;BME280;2501;51.214;6.768;2024-01-16T11:18:41;100667.81;;;0.63;100.00
4972;BME280;2501;51.214;6.768;2024-01-16T11:21:19;100666.63;;;0.56;100.00
4972;BME280;2501;51.214;6.768;2024-01-16T11:23:48;100668.25;;;0.74;100.00
4972;BME280;2501;51.214;6.768;2024-01-16T11:26:32;100681.97;;;0.53;100.00
4972;BME280;2501;51.214;6.768;2024-01-16T11:32:00;100686.47;;;0.77;100.00
4972;BME280;2501;51.214;6.768;2024-01-16T11:34:52;100692.72;;;1.01;100.00
4972;BME280;2501;51.214;6.768;2024-01-16T11:37:26;100693.47;;;0.79;100.00
4972;BME280;2501;51.214;6.768;2024-01-16T11:40:26;100697.75;;;0.59;100.00
4972;BME280;2501;51.214;6.768;2024-01-16T11:42:57;100691.03;;;0.82;100.00
4972;BME280;2501;51.214;6.768;2024-01-16T11:45:50;100680.84;;;0.66;100.00
4972;BME280;2501;51.214;6.768;2024-01-16T11:48:19;100663.16;;;0.56;100.00
4972;BME280;2501;51.214;6.768;2024-01-16T11:50:48;100669.06;;;0.73;100.00
4972;BME280;2501;51.214;6.768;2024-01-16T11:53:35;100658.94;;;0.77;100.00
4972;BME280;2501;51.214;6.768;2024-01-16T11:56:18;100659.00;;;0.98;100.00
4972;BME280;2501;51.214;6.768;2024-01-16T11:59:05;100652.19;;;1.42;100.00
4972;BME280;2501;51.214;6.768;2024-01-16T12:01:36;100653.44;;;0.89;100.00
4972;BME280;2501;51.214;6.768;2024-01-16T12:04:05;100643.72;;;1.02;100.00
4972;BME280;2501;51.214;6.768;2024-01-16T12:06:35;100640.34;;;0.84;100.00
4972;BME280;2501;51.214;6.768;2024-01-16T12:09:12;100640.53;;;0.69;100.00
4972;BME280;2501;51.214;6.768;2024-01-16T12:11:41;100633.69;;;0.70;100.00
4972;BME280;2501;51.214;6.768;2024-01-16T12:14:13;100632.88;;;1.11;100.00
4972;BME280;2501;51.214;6.768;2024-01-16T12:16:42;100624.94;;;0.87;100.00
4972;BME280;2501;51.214;6.768;2024-01-16T12:19:10;100620.03;;;0.73;100.00
4972;BME280;2501;51.214;6.768;2024-01-16T12:21:39;100622.38;;;0.66;100.00
4972;BME280;2501;51.214;6.768;2024-01-16T12:24:08;100615.22;;;0.61;100.00
4972;BME280;2501;51.214;6.768;2024-01-16T12:26:37;100615.13;;;0.79;100.00
4972;BME280;2501;51.214;6.768;2024-01-16T12:29:06;100608.72;;;0.90;100.00
4972;BME280;2501;51.214;6.768;2024-01-16T12:31:38;100602.41;;;1.04;100.00
4972;BME280;2501;51.214;6.768;2024-01-16T12:34:06;100595.13;;;1.15;100.00
4972;BME280;2501;51.214;6.768;2024-01-16T12:36:36;100596.31;;;1.23;100.00
4972;BME280;2501;51.214;6.768;2024-01-16T12:39:05;100593.22;;;1.11;100.00
4972;BME280;2501;51.214;6.768;2024-01-16T12:41:42;100585.28;;;1.06;100.00
4972;BME280;2501;51.214;6.768;2024-01-16T12:44:12;100588.00;;;1.30;100.00
4972;BME280;2501;51.214;6.768;2024-01-16T12:46:43;100586.50;;;1.57;100.00
4972;BME280;2501;51.214;6.768;2024-01-16T12:49:11;100595.31;;;1.19;100.00
4972;BME280;2501;51.214;6.768;2024-01-16T12:51:41;100591.72;;;0.95;100.00
4972;BME280;2501;51.214;6.768;2024-01-16T12:54:13;100586.88;;;1.66;100.00
4972;BME280;2501;51.214;6.768;2024-01-16T12:56:43;100587.16;;;1.52;100.00
4972;BME280;2501;51.214;6.768;2024-01-16T12:59:12;100593.16;;;1.30;100.00
4972;BME280;2501;51.214;6.768;2024-01-16T13:01:44;100591.78;;;1.60;100.00
4972;BME280;2501;51.214;6.768;2024-01-16T13:04:15;100580.00;;;1.89;100.00
4972;BME280;2501;51.214;6.768;2024-01-16T13:06:44;100593.72;;;1.23;100.00
4972;BME280;2501;51.214;6.768;2024-01-16T13:09:13;100580.81;;;1.23;100.00
4972;BME280;2501;51.214;6.768;2024-01-16T13:11:48;100584.66;;;1.32;100.00
4972;BME280;2501;51.214;6.768;2024-01-16T13:14:18;100582.34;;;1.38;100.00
4972;BME280;2501;51.214;6.768;2024-01-16T13:16:50;100586.78;;;1.43;100.00
4972;BME280;2501;51.214;6.768;2024-01-16T13:19:21;100583.28;;;1.20;100.00
4972;BME280;2501;51.214;6.768;2024-01-16T13:21:51;100585.97;;;1.23;100.00
4972;BME280;2501;51.214;6.768;2024-01-16T13:24:19;100587.81;;;0.84;100.00
4972;BME280;2501;51.214;6.768;2024-01-16T13:26:49;100582.97;;;1.12;100.00
4972;BME280;2501;51.214;6.768;2024-01-16T13:29:17;100585.00;;;1.19;100.00
4972;BME280;2501;51.214;6.768;2024-01-16T13:31:48;100570.63;;;1.48;100.00